Time;durP1;ratioP1;P1;durP2;ratioP2;P2;SDS_P1;SDS_P2;PMS_P1;PMS_P2;Temp;Humidity;BMP_temperature;BMP_pressure;BME280_temperature;BME280_humidity;BME280_pressure;Samples;Min_cycle;Max_cycle;Signal;HPM_P1;HPM_P2
2022/09/05 00:00:02;;;;;;;0.60;0.60;;;19.40;99.90;;;;;;5053039;28;20549;-61
2022/09/05 00:02:34;;;;;;;0.93;0.90;;;19.40;99.90;;;;;;5053996;28;20219;-62
2022/09/05 00:05:20;;;;;;;0.60;0.60;;;19.50;99.90;;;;;;5053987;28;20319;-61
2022/09/05 00:07:54;;;;;;;0.70;0.70;;;19.50;99.90;;;;;;5047321;28;20688;-61
2022/09/05 00:10:29;;;;;;;0.77;0.77;;;19.60;99.90;;;;;;5054170;28;20211;-61
2022/09/05 00:13:00;;;;;;;0.63;0.63;;;19.60;99.90;;;;;;5053725;28;20306;-61
2022/09/05 00:15:37;;;;;;;0.70;0.70;;;19.60;99.90;;;;;;5053744;28;20200;-61
2022/09/05 00:18:27;;;;;;;0.73;0.73;;;19.60;99.90;;;;;;5051756;28;20761;-60
2022/09/05 00:21:02;;;;;;;0.70;0.70;;;19.60;99.90;;;;;;5049357;28;20196;-60
2022/09/05 00:23:43;;;;;;;0.60;0.60;;;19.60;99.90;;;;;;5054290;28;20353;-60
2022/09/05 00:26:28;;;;;;;0.70;0.70;;;19.50;99.90;;;;;;5054258;28;20196;-60
2022/09/05 00:29:03;;;;;;;0.80;0.80;;;19.50;99.90;;;;;;5080072;22;20233;-66
2022/09/05 00:31:43;;;;;;;0.87;0.87;;;19.40;99.90;;;;;;5073486;28;20580;-66
2022/09/05 00:34:21;;;;;;;0.70;0.70;;;19.40;99.90;;;;;;5073338;28;20195;-67
2022/09/05 00:36:52;;;;;;;0.80;0.80;;;19.40;99.90;;;;;;5067766;28;20205;-66
2022/09/05 00:39:23;;;;;;;0.60;0.60;;;19.40;99.90;;;;;;5072192;28;20223;-66
2022/09/05 00:41:51;;;;;;;0.80;0.80;;;19.30;99.90;;;;;;5076308;28;20204;-66
2022/09/05 00:44:24;;;;;;;0.80;0.80;;;19.30;99.90;;;;;;5073477;28;20231;-66
2022/09/05 00:46:59;;;;;;;0.68;0.68;;;19.30;99.90;;;;;;5073660;28;20206;-66
2022/09/05 00:49:33;;;;;;;0.70;0.70;;;19.20;99.90;;;;;;5073026;28;20354;-66
2022/09/05 00:52:04;;;;;;;0.93;0.90;;;19.20;99.90;;;;;;5074955;28;20245;-66
2022/09/05 00:54:49;;;;;;;1.00;1.00;;;19.20;99.90;;;;;;5073473;28;20615;-67
2022/09/05 00:57:48;;;;;;;0.70;0.70;;;19.20;99.90;;;;;;5073780;28;20201;-67
2022/09/05 01:00:18;;;;;;;0.82;0.82;;;19.20;99.90;;;;;;5066672;28;20226;-66
2022/09/05 01:03:20;;;;;;;0.80;0.80;;;19.20;99.90;;;;;;5073474;28;20757;-66
2022/09/05 01:06:17;;;;;;;0.80;0.80;;;19.10;99.90;;;;;;5066782;28;20201;-65
2022/09/05 01:09:17;;;;;;;0.83;0.80;;;19.10;99.90;;;;;;5066083;28;20699;-66
2022/09/05 01:12:09;;;;;;;0.57;0.57;;;19.10;99.90;;;;;;5066117;28;20290;-67
2022/09/05 01:15:00;;;;;;;0.70;0.70;;;19.10;99.90;;;;;;5068949;28;20199;-67
2022/09/05 01:17:38;;;;;;;0.50;0.50;;;19.10;99.90;;;;;;5072383;28;20211;-65
2022/09/05 01:20:16;;;;;;;0.80;0.80;;;19.20;99.90;;;;;;5072269;28;20302;-67
2022/09/05 01:23:09;;;;;;;0.83;0.83;;;19.20;99.90;;;;;;5065713;28;20252;-66
2022/09/05 01:25:59;;;;;;;0.60;0.60;;;19.20;99.90;;;;;;5064927;28;20207;-68
2022/09/05 01:28:34;;;;;;;0.70;0.70;;;19.20;99.90;;;;;;5068970;28;20227;-67
2022/09/05 01:31:09;;;;;;;0.70;0.70;;;19.20;99.90;;;;;;5072267;28;20688;-67
2022/09/05 01:33:43;;;;;;;0.60;0.60;;;19.20;99.90;;;;;;5071533;28;20201;-69
2022/09/05 01:36:22;;;;;;;0.70;0.70;;;19.20;99.90;;;;;;5069327;28;20206;-66
2022/09/05 01:38:59;;;;;;;0.70;0.70;;;19.20;99.90;;;;;;5071242;28;20258;-67
2022/09/05 01:41:34;;;;;;;1.30;0.70;;;19.10;99.90;;;;;;5072278;28;20202;-68
2022/09/05 01:44:22;;;;;;;0.80;0.80;;;19.10;99.90;;;;;;5071845;28;20986;-66
2022/09/05 01:47:16;;;;;;;0.67;0.67;;;19.00;99.90;;;;;;5065624;28;20229;-67
2022/09/05 01:49:55;;;;;;;0.67;0.67;;;19.10;99.90;;;;;;5070743;28;20251;-68
2022/09/05 01:52:38;;;;;;;0.70;0.70;;;19.00;99.90;;;;;;5063665;28;20227;-66
2022/09/05 01:55:25;;;;;;;0.70;0.70;;;19.00;99.90;;;;;;5060550;28;20235;-66
2022/09/05 01:58:02;;;;;;;0.70;0.70;;;19.00;99.90;;;;;;5059994;28;20666;-66
2022/09/05 02:00:39;;;;;;;0.80;0.80;;;18.90;99.90;;;;;;5063333;28;20305;-67
2022/09/05 02:03:16;;;;;;;0.90;0.90;;;18.80;99.90;;;;;;5055605;28;20299;-67
2022/09/05 02:06:02;;;;;;;0.80;0.80;;;18.80;99.90;;;;;;5059464;28;20302;-67
2022/09/05 02:08:49;;;;;;;0.70;0.70;;;18.80;99.90;;;;;;5060199;28;20311;-66
2022/09/05 02:11:16;;;;;;;0.77;0.77;;;18.80;99.90;;;;;;5062049;28;20290;-66
2022/09/05 02:14:00;;;;;;;0.90;0.90;;;18.80;99.90;;;;;;5060196;28;20203;-67
2022/09/05 02:16:41;;;;;;;0.77;0.77;;;18.80;99.90;;;;;;5068425;28;20600;-67
2022/09/05 02:19:15;;;;;;;0.90;0.90;;;18.90;99.90;;;;;;5060499;28;20255;-67
2022/09/05 02:21:51;;;;;;;0.80;0.80;;;18.90;99.90;;;;;;5060495;28;20576;-66
2022/09/05 02:24:22;;;;;;;0.60;0.60;;;18.90;99.90;;;;;;5061069;28;20219;-67
2022/09/05 02:27:02;;;;;;;0.90;0.90;;;18.80;99.90;;;;;;5059789;28;20581;-68
2022/09/05 02:29:36;;;;;;;0.73;0.73;;;18.90;99.90;;;;;;5062812;28;20226;-66
2022/09/05 02:32:14;;;;;;;0.70;0.70;;;18.90;99.90;;;;;;5056799;28;20207;-69
2022/09/05 02:34:50;;;;;;;0.80;0.80;;;18.90;99.90;;;;;;5060205;28;20195;-66
2022/09/05 02:37:24;;;;;;;1.30;0.70;;;18.90;99.90;;;;;;5059342;28;20220;-68
2022/09/05 02:39:57;;;;;;;0.90;0.90;;;18.90;99.90;;;;;;5071888;28;20315;-66
2022/09/05 02:42:31;;;;;;;0.60;0.60;;;19.00;99.90;;;;;;5077628;28;20238;-67
2022/09/05 02:45:08;;;;;;;0.80;0.80;;;18.90;99.90;;;;;;5074262;28;20229;-67
2022/09/05 02:47:43;;;;;;;0.60;0.60;;;18.90;99.90;;;;;;5065892;28;20199;-68
2022/09/05 02:50:27;;;;;;;0.80;0.80;;;18.80;99.90;;;;;;5076216;28;20313;-66
2022/09/05 02:52:56;;;;;;;0.75;0.75;;;18.80;99.90;;;;;;5073956;28;20286;-66
2022/09/05 02:55:30;;;;;;;0.70;0.70;;;18.80;99.90;;;;;;5071540;28;20302;-67
2022/09/05 02:58:19;;;;;;;0.60;0.60;;;18.70;99.90;;;;;;5071491;28;20206;-67
2022/09/05 03:00:58;;;;;;;0.80;0.80;;;18.60;99.90;;;;;;5068804;28;20286;-67
2022/09/05 03:03:34;;;;;;;0.77;0.77;;;18.60;99.90;;;;;;5071398;28;20219;-68
2022/09/05 03:06:04;;;;;;;0.80;0.80;;;18.60;99.90;;;;;;5071042;28;20195;-66
2022/09/05 03:08:49;;;;;;;0.77;0.77;;;18.50;99.90;;;;;;5071221;28;20258;-68
2022/09/05 03:11:46;;;;;;;0.80;0.80;;;18.50;99.90;;;;;;5071485;28;20195;-66
2022/09/05 03:14:46;;;;;;;1.07;1.00;;;18.40;99.90;;;;;;5031882;28;20287;-67
2022/09/05 03:17:43;;;;;;;0.70;0.70;;;18.40;99.90;;;;;;5040524;28;20546;-67
2022/09/05 03:20:39;;;;;;;0.80;0.80;;;18.40;99.90;;;;;;5069261;28;20306;-65
2022/09/05 03:23:38;;;;;;;0.80;0.80;;;18.40;99.90;;;;;;5074875;28;20222;-66
2022/09/05 03:26:29;;;;;;;0.60;0.60;;;18.30;99.90;;;;;;5067996;28;20713;-66
2022/09/05 03:29:26;;;;;;;0.77;0.77;;;18.30;99.90;;;;;;5066325;28;20237;-66
2022/09/05 03:32:29;;;;;;;0.80;0.80;;;18.30;99.90;;;;;;5062438;28;20607;-66
2022/09/05 03:35:25;;;;;;;0.90;0.90;;;18.20;99.90;;;;;;5071645;28;20271;-66
2022/09/05 03:38:23;;;;;;;0.70;0.70;;;18.30;99.90;;;;;;5072834;28;20208;-67
2022/09/05 03:41:17;;;;;;;0.80;0.80;;;18.20;99.90;;;;;;5086175;28;20231;-67
2022/09/05 03:44:05;;;;;;;0.80;0.80;;;18.20;99.90;;;;;;5089547;28;20250;-66
2022/09/05 03:46:53;;;;;;;1.33;0.80;;;18.10;99.90;;;;;;5070983;28;20278;-67
2022/09/05 03:50:02;;;;;;;0.83;0.83;;;18.20;99.90;;;;;;5072935;28;20234;-67
2022/09/05 03:52:48;;;;;;;0.70;0.70;;;18.20;99.90;;;;;;5069238;28;20199;-67
2022/09/05 03:55:51;;;;;;;0.87;0.87;;;18.20;99.90;;;;;;5074599;28;20191;-67
2022/09/05 03:58:33;;;;;;;0.80;0.80;;;18.20;99.90;;;;;;5068663;28;20293;-68
2022/09/05 04:01:08;;;;;;;0.63;0.63;;;18.30;99.90;;;;;;5074486;28;20756;-68
2022/09/05 04:03:42;;;;;;;0.73;0.73;;;18.30;99.90;;;;;;5066237;28;20309;-68
2022/09/05 04:06:17;;;;;;;0.70;0.70;;;18.30;99.90;;;;;;5074074;28;20761;-65
2022/09/05 04:08:48;;;;;;;0.70;0.70;;;18.30;99.90;;;;;;5074831;28;20262;-66
2022/09/05 04:11:18;;;;;;;0.83;0.80;;;18.30;99.90;;;;;;5066507;28;20601;-68
2022/09/05 04:13:52;;;;;;;0.70;0.70;;;18.30;99.90;;;;;;5077745;28;20286;-69
2022/09/05 04:16:24;;;;;;;2.17;0.80;;;18.30;99.90;;;;;;5076293;28;20671;-67
2022/09/05 04:18:56;;;;;;;0.70;0.70;;;18.30;99.90;;;;;;5075679;28;20223;-68
2022/09/05 04:21:27;;;;;;;0.90;0.90;;;18.30;99.90;;;;;;5069272;28;20209;-67
2022/09/05 04:24:02;;;;;;;1.27;0.90;;;18.30;99.90;;;;;;5063172;28;20298;-67
2022/09/05 04:26:53;;;;;;;0.67;0.67;;;18.20;99.90;;;;;;5074107;28;20263;-66
2022/09/05 04:29:27;;;;;;;0.70;0.70;;;18.30;99.90;;;;;;5064138;28;20235;-69
2022/09/05 04:32:01;;;;;;;0.60;0.60;;;18.30;99.90;;;;;;5068131;28;20203;-66
2022/09/05 04:34:44;;;;;;;0.70;0.70;;;18.30;99.90;;;;;;5089048;28;20241;-68
2022/09/05 04:37:32;;;;;;;0.80;0.80;;;18.20;99.90;;;;;;5083493;28;20202;-66
2022/09/05 04:40:34;;;;;;;0.53;0.53;;;18.20;99.90;;;;;;5074866;28;20255;-67
2022/09/05 04:43:05;;;;;;;0.80;0.80;;;18.20;99.90;;;;;;5089110;28;20226;-66
2022/09/05 04:45:39;;;;;;;0.90;0.90;;;18.10;99.90;;;;;;5075130;28;20307;-70
2022/09/05 04:48:11;;;;;;;0.70;0.70;;;18.10;99.90;;;;;;5075315;28;20282;-65
2022/09/05 04:51:00;;;;;;;0.73;0.73;;;18.00;99.90;;;;;;5071666;28;20195;-67
2022/09/05 04:53:40;;;;;;;0.70;0.70;;;18.00;99.90;;;;;;5073521;28;20204;-66
2022/09/05 04:56:12;;;;;;;1.67;0.82;;;18.10;99.90;;;;;;5070036;28;20197;-66
2022/09/05 04:58:43;;;;;;;0.77;0.77;;;18.10;99.90;;;;;;5073312;28;20239;-67
2022/09/05 05:01:17;;;;;;;0.63;0.63;;;18.20;99.90;;;;;;5070564;28;20639;-67
2022/09/05 05:03:46;;;;;;;0.70;0.70;;;18.20;99.90;;;;;;5073151;28;20222;-67
2022/09/05 05:06:22;;;;;;;0.70;0.70;;;18.20;99.90;;;;;;5072966;28;20199;-66
2022/09/05 05:08:57;;;;;;;0.60;0.60;;;18.20;99.90;;;;;;5073157;28;20303;-67
2022/09/05 05:11:43;;;;;;;1.43;0.90;;;18.20;99.90;;;;;;5072436;28;20286;-66
2022/09/05 05:14:17;;;;;;;0.80;0.80;;;18.30;99.90;;;;;;5073259;28;20195;-67
2022/09/05 05:16:51;;;;;;;0.77;0.77;;;18.20;99.90;;;;;;5073457;28;20203;-67
2022/09/05 05:19:22;;;;;;;0.75;0.75;;;18.30;99.90;;;;;;5072816;28;20242;-67
2022/09/05 05:21:52;;;;;;;0.75;0.75;;;18.30;99.90;;;;;;5072873;28;20203;-66
2022/09/05 05:24:24;;;;;;;1.00;1.00;;;18.30;99.90;;;;;;5072418;28;20231;-66
2022/09/05 05:26:55;;;;;;;1.10;1.10;;;18.20;99.90;;;;;;5072744;28;20207;-69
2022/09/05 05:29:26;;;;;;;1.05;1.05;;;18.20;99.90;;;;;;5072476;28;20322;-66
2022/09/05 05:31:58;;;;;;;1.20;1.20;;;18.10;99.90;;;;;;5069123;28;20290;-68
2022/09/05 05:34:29;;;;;;;1.27;1.27;;;18.10;99.90;;;;;;5071626;28;20290;-67
2022/09/05 05:37:00;;;;;;;1.10;1.10;;;18.10;99.90;;;;;;5070177;28;20211;-68
2022/09/05 05:39:28;;;;;;;1.13;1.13;;;18.00;99.90;;;;;;5071449;28;20353;-68
2022/09/05 05:41:57;;;;;;;1.40;1.30;;;17.90;99.90;;;;;;5067636;28;20204;-67
2022/09/05 05:44:28;;;;;;;1.20;1.20;;;17.80;99.90;;;;;;5072139;28;20302;-69
2022/09/05 05:47:01;;;;;;;1.10;1.10;;;17.80;99.90;;;;;;5071651;28;20579;-67
2022/09/05 05:49:47;;;;;;;0.90;0.90;;;17.70;99.90;;;;;;5063011;28;20652;-69
2022/09/05 05:52:45;;;;;;;1.00;1.00;;;17.80;99.90;;;;;;5069469;28;20688;-69
2022/09/05 05:55:49;;;;;;;0.90;0.90;;;17.70;99.90;;;;;;5068881;28;20223;-68
2022/09/05 05:58:28;;;;;;;1.10;1.00;;;17.60;99.90;;;;;;5073826;28;20278;-67
2022/09/05 06:01:25;;;;;;;1.03;0.93;;;17.60;99.90;;;;;;5072996;28;20571;-67
2022/09/05 06:04:40;;;;;;;0.98;0.98;;;17.60;99.90;;;;;;5069425;28;20249;-66
2022/09/05 06:07:16;;;;;;;1.05;1.05;;;17.70;99.90;;;;;;4984460;28;20225;-67
2022/09/05 06:09:57;;;;;;;0.90;0.90;;;17.70;99.90;;;;;;5002206;28;20316;-69
2022/09/05 06:13:01;;;;;;;0.80;0.80;;;17.80;99.90;;;;;;5009647;28;20209;-67
2022/09/05 06:15:51;;;;;;;1.00;1.00;;;17.80;99.90;;;;;;5009143;28;20247;-66
2022/09/05 06:18:46;;;;;;;1.17;1.07;;;17.90;99.90;;;;;;5007352;28;20209;-67
2022/09/05 06:21:54;;;;;;;0.97;0.97;;;18.10;99.90;;;;;;4969011;28;20223;-67
2022/09/05 06:25:24;;;;;;;1.20;1.10;;;18.20;99.90;;;;;;5005486;28;20766;-66
2022/09/05 06:28:04;;;;;;;1.03;1.03;;;18.40;99.90;;;;;;4936385;29;20207;-68
2022/09/05 06:30:38;;;;;;;0.80;0.80;;;18.50;99.90;;;;;;4998594;28;20225;-68
2022/09/05 06:33:20;;;;;;;0.87;0.87;;;18.60;99.90;;;;;;5005726;28;20259;-68
2022/09/05 06:35:57;;;;;;;0.90;0.90;;;18.70;99.90;;;;;;5010390;28;20598;-68
2022/09/05 06:38:32;;;;;;;1.00;1.00;;;18.80;99.90;;;;;;5051928;28;20226;-66
2022/09/05 06:41:18;;;;;;;1.02;1.02;;;19.00;99.90;;;;;;5065942;28;20204;-67
2022/09/05 06:44:21;;;;;;;1.00;1.00;;;19.10;99.90;;;;;;5067432;28;20211;-68
2022/09/05 06:46:52;;;;;;;0.87;0.87;;;19.40;99.90;;;;;;5070986;28;20205;-68
2022/09/05 06:49:22;;;;;;;0.90;0.90;;;19.50;99.90;;;;;;5074891;28;20227;-68
2022/09/05 06:52:13;;;;;;;1.10;1.10;;;19.60;99.90;;;;;;5073407;28;20290;-68
2022/09/05 06:54:58;;;;;;;1.10;0.90;;;19.80;99.90;;;;;;5069381;28;20239;-68
2022/09/05 06:58:10;;;;;;;1.13;1.02;;;19.90;99.90;;;;;;5070819;28;20250;-69
2022/09/05 07:00:46;;;;;;;1.00;1.00;;;20.10;99.90;;;;;;5047818;28;20630;-68
2022/09/05 07:03:45;;;;;;;1.00;1.00;;;20.20;99.90;;;;;;5071051;28;20672;-67
2022/09/05 07:06:21;;;;;;;0.90;0.90;;;20.40;99.90;;;;;;5070897;28;20572;-68
2022/09/05 07:08:52;;;;;;;0.90;0.90;;;20.50;99.90;;;;;;5071349;28;20253;-68
2022/09/05 07:11:22;;;;;;;0.90;0.90;;;20.60;99.90;;;;;;5074701;28;20370;-67
2022/09/05 07:14:00;;;;;;;0.85;0.85;;;20.80;99.90;;;;;;5074971;28;20286;-68
2022/09/05 07:16:40;;;;;;;0.90;0.90;;;20.90;99.90;;;;;;5074105;28;20210;-67
2022/09/05 07:19:25;;;;;;;0.80;0.80;;;21.00;99.90;;;;;;5075021;28;20219;-67
2022/09/05 07:22:12;;;;;;;1.00;1.00;;;21.20;99.90;;;;;;5070307;28;20192;-69
2022/09/05 07:24:43;;;;;;;0.87;0.87;;;21.30;99.90;;;;;;5076764;28;20222;-67
2022/09/05 07:27:12;;;;;;;0.80;0.80;;;21.40;99.90;;;;;;5076934;28;20736;-67
2022/09/05 07:29:42;;;;;;;1.00;1.00;;;21.50;99.90;;;;;;5076186;28;20319;-66
2022/09/05 07:32:17;;;;;;;0.80;0.80;;;21.60;99.90;;;;;;5077585;28;20941;-67
2022/09/05 07:34:46;;;;;;;0.93;0.93;;;21.70;99.90;;;;;;5074779;28;20947;-66
2022/09/05 07:37:20;;;;;;;1.00;1.00;;;21.70;99.90;;;;;;5071593;28;20298;-69
2022/09/05 07:39:53;;;;;;;0.83;0.83;;;21.70;99.90;;;;;;5074694;28;20692;-68
2022/09/05 07:42:25;;;;;;;0.87;0.83;;;21.70;99.90;;;;;;5074810;28;20246;-67
2022/09/05 07:44:56;;;;;;;0.90;0.90;;;21.80;99.90;;;;;;5074254;28;20224;-66
2022/09/05 07:47:30;;;;;;;0.87;0.87;;;21.90;99.90;;;;;;5074294;28;20286;-68
2022/09/05 07:50:00;;;;;;;0.90;0.90;;;22.00;99.90;;;;;;5074404;28;20242;-67
2022/09/05 07:52:28;;;;;;;0.97;0.97;;;22.10;99.90;;;;;;5073153;28;20560;-69
2022/09/05 07:54:59;;;;;;;0.73;0.73;;;22.10;99.90;;;;;;5074369;28;20259;-67
2022/09/05 07:57:31;;;;;;;0.90;0.90;;;22.10;99.90;;;;;;5073640;28;20620;-66
2022/09/05 08:00:04;;;;;;;0.85;0.85;;;22.20;99.90;;;;;;5073892;28;20237;-68
2022/09/05 08:02:33;;;;;;;2.13;0.98;;;22.20;99.90;;;;;;5071029;28;20196;-66
2022/09/05 08:05:03;;;;;;;1.00;1.00;;;22.40;99.90;;;;;;5074161;28;20306;-69
2022/09/05 08:07:36;;;;;;;0.80;0.80;;;22.40;99.90;;;;;;5073807;28;20210;-66
2022/09/05 08:10:09;;;;;;;1.15;0.82;;;22.50;99.90;;;;;;5067858;28;20280;-68
2022/09/05 08:12:39;;;;;;;2.15;1.00;;;22.60;99.90;;;;;;5070639;28;20206;-69
2022/09/05 08:15:07;;;;;;;0.70;0.70;;;22.80;99.90;;;;;;5074065;28;20195;-68
2022/09/05 08:17:53;;;;;;;0.87;0.87;;;22.80;99.90;;;;;;5069242;28;20195;-68
2022/09/05 08:20:30;;;;;;;0.80;0.80;;;22.90;99.90;;;;;;5063708;28;20789;-66
2022/09/05 08:23:05;;;;;;;0.90;0.90;;;23.10;99.90;;;;;;5073900;28;20282;-66
2022/09/05 08:25:34;;;;;;;0.90;0.90;;;23.10;99.90;;;;;;5074419;28;20310;-68
2022/09/05 08:28:07;;;;;;;1.00;1.00;;;23.20;99.90;;;;;;5072641;28;20210;-68
2022/09/05 08:30:42;;;;;;;1.43;1.00;;;23.20;99.90;;;;;;5066162;28;20678;-68
2022/09/05 08:33:14;;;;;;;0.90;0.90;;;23.40;99.90;;;;;;5070668;28;20282;-68
2022/09/05 08:35:44;;;;;;;0.80;0.80;;;23.50;99.90;;;;;;5069782;28;20198;-67
2022/09/05 08:38:14;;;;;;;0.83;0.83;;;23.80;99.90;;;;;;5073242;28;20199;-67
2022/09/05 08:40:48;;;;;;;0.80;0.80;;;23.90;99.90;;;;;;5075543;28;20214;-68
2022/09/05 08:43:28;;;;;;;1.15;1.08;;;23.80;99.90;;;;;;5081032;28;20210;-67
2022/09/05 08:46:00;;;;;;;0.98;0.98;;;23.80;99.90;;;;;;5084754;28;20223;-67
2022/09/05 08:48:40;;;;;;;1.00;1.00;;;23.90;99.90;;;;;;5085358;28;20238;-68
2022/09/05 08:51:25;;;;;;;0.90;0.90;;;24.00;99.90;;;;;;5077875;28;20317;-67
2022/09/05 08:54:07;;;;;;;0.77;0.77;;;24.20;99.90;;;;;;5079655;28;20204;-67
2022/09/05 08:56:45;;;;;;;1.13;1.00;;;24.40;99.90;;;;;;5081599;28;20294;-67
2022/09/05 08:59:39;;;;;;;2.67;0.98;;;24.50;99.90;;;;;;5078641;28;20242;-67
2022/09/05 09:02:35;;;;;;;0.80;0.80;;;24.40;99.90;;;;;;5076536;28;20256;-69
2022/09/05 09:05:13;;;;;;;1.00;1.00;;;24.50;99.90;;;;;;5077491;28;20253;-67
2022/09/05 09:07:43;;;;;;;1.00;1.00;;;24.70;99.90;;;;;;5080763;28;20199;-67
2022/09/05 09:10:26;;;;;;;0.80;0.80;;;24.60;99.90;;;;;;5071480;28;20219;-68
2022/09/05 09:13:18;;;;;;;0.70;0.70;;;24.80;99.90;;;;;;5079509;28;20266;-68
2022/09/05 09:15:52;;;;;;;0.90;0.90;;;25.10;99.90;;;;;;5083609;28;20561;-68
2022/09/05 09:18:20;;;;;;;0.90;0.90;;;25.00;99.90;;;;;;5081086;28;20207;-68
2022/09/05 09:20:52;;;;;;;0.90;0.90;;;25.00;99.90;;;;;;5076650;28;20207;-67
2022/09/05 09:23:41;;;;;;;0.80;0.80;;;25.20;99.90;;;;;;5072541;28;20294;-68
2022/09/05 09:26:14;;;;;;;0.90;0.90;;;25.50;99.90;;;;;;5071130;28;20255;-69
2022/09/05 09:28:52;;;;;;;0.90;0.90;;;25.60;99.90;;;;;;5074332;28;20259;-67
2022/09/05 09:31:38;;;;;;;0.80;0.80;;;25.60;99.90;;;;;;5078715;28;20596;-67
2022/09/05 09:34:19;;;;;;;0.93;0.93;;;25.70;99.90;;;;;;5061353;28;20196;-67
2022/09/05 09:37:21;;;;;;;1.00;1.00;;;25.90;99.90;;;;;;5071504;28;20188;-67
2022/09/05 09:40:20;;;;;;;1.73;1.00;;;26.00;99.90;;;;;;5069364;28;20249;-68
2022/09/05 09:42:50;;;;;;;0.90;0.90;;;26.20;99.90;;;;;;5072163;28;20737;-68
2022/09/05 09:45:43;;;;;;;1.45;1.10;;;26.40;99.90;;;;;;5071546;28;20223;-67
2022/09/05 09:48:50;;;;;;;0.98;0.98;;;26.60;99.90;;;;;;5069065;28;20302;-69
2022/09/05 09:51:37;;;;;;;1.08;0.98;;;26.70;99.90;;;;;;5070418;28;20206;-69
2022/09/05 09:54:39;;;;;;;1.00;1.00;;;26.80;99.90;;;;;;5065349;28;20207;-68
2022/09/05 09:57:43;;;;;;;0.82;0.82;;;27.10;99.90;;;;;;5000711;28;20290;-67
2022/09/05 10:00:16;;;;;;;0.80;0.80;;;27.20;99.90;;;;;;5070521;28;20585;-68
2022/09/05 10:03:38;;;;;;;0.80;0.80;;;27.40;99.90;;;;;;5065393;28;20291;-69
2022/09/05 10:06:37;;;;;;;1.35;0.95;;;27.50;99.90;;;;;;5046626;28;20694;-68
2022/09/05 10:09:16;;;;;;;0.90;0.90;;;27.70;99.90;;;;;;5054477;28;20238;-69
2022/09/05 10:12:13;;;;;;;0.80;0.80;;;27.80;99.90;;;;;;5065683;28;20249;-69
2022/09/05 10:14:59;;;;;;;1.27;0.90;;;27.80;99.90;;;;;;5069987;28;20290;-67
2022/09/05 10:18:05;;;;;;;0.80;0.80;;;27.90;99.90;;;;;;5069179;28;20199;-68
2022/09/05 10:20:44;;;;;;;0.90;0.90;;;28.00;99.90;;;;;;5062225;28;20492;-69
2022/09/05 10:23:44;;;;;;;0.75;0.75;;;28.00;99.90;;;;;;5063582;28;20207;-67
2022/09/05 10:27:01;;;;;;;0.95;0.95;;;28.20;99.90;;;;;;5071562;28;20218;-67
2022/09/05 10:29:44;;;;;;;0.93;0.93;;;28.20;99.90;;;;;;5070832;28;20227;-68
2022/09/05 10:32:17;;;;;;;1.00;1.00;;;28.20;99.90;;;;;;5071810;28;20231;-67
2022/09/05 10:34:56;;;;;;;0.70;0.70;;;28.10;99.90;;;;;;5074120;28;20195;-68
2022/09/05 10:37:25;;;;;;;0.80;0.80;;;28.20;99.90;;;;;;5070875;28;20211;-68
2022/09/05 10:39:52;;;;;;;2.70;0.98;;;28.30;99.90;;;;;;5076713;28;20306;-69
2022/09/05 10:42:28;;;;;;;0.80;0.80;;;28.50;99.90;;;;;;5080727;28;20210;-68
2022/09/05 10:44:56;;;;;;;0.88;0.88;;;28.50;99.90;;;;;;5080032;28;20202;-68
2022/09/05 10:47:38;;;;;;;0.80;0.80;;;28.70;99.90;;;;;;5083100;28;20290;-67
2022/09/05 10:50:20;;;;;;;0.70;0.70;;;28.80;99.90;;;;;;5075711;28;20253;-67
2022/09/05 10:53:02;;;;;;;0.70;0.70;;;28.90;99.90;;;;;;5069626;28;20203;-68
2022/09/05 10:55:37;;;;;;;2.70;1.00;;;29.00;99.90;;;;;;5075154;28;20299;-68
2022/09/05 10:58:18;;;;;;;2.70;0.70;;;29.00;99.90;;;;;;5074507;28;20242;-66
2022/09/05 11:01:02;;;;;;;0.55;0.55;;;29.10;99.90;;;;;;5071168;28;20295;-69
2022/09/05 11:03:35;;;;;;;0.65;0.65;;;29.30;99.90;;;;;;5067084;28;20210;-67
2022/09/05 11:06:09;;;;;;;1.00;1.00;;;29.40;99.90;;;;;;5070219;28;20262;-69
2022/09/05 11:08:45;;;;;;;0.65;0.65;;;29.50;99.90;;;;;;5072662;28;20348;-72
2022/09/05 11:11:17;;;;;;;0.73;0.73;;;29.60;99.90;;;;;;5075341;28;20199;-68
2022/09/05 11:13:48;;;;;;;0.90;0.90;;;29.60;99.90;;;;;;5068100;28;20299;-68
2022/09/05 11:16:24;;;;;;;1.00;1.00;;;29.60;99.90;;;;;;5066361;28;20282;-68
2022/09/05 11:19:03;;;;;;;1.23;0.85;;;29.60;99.90;;;;;;5073338;28;20335;-69
2022/09/05 11:21:49;;;;;;;1.00;1.00;;;29.70;99.90;;;;;;5071666;28;20204;-67
2022/09/05 11:24:31;;;;;;;0.80;0.80;;;29.70;99.90;;;;;;5071686;28;20286;-68
2022/09/05 11:27:04;;;;;;;0.77;0.77;;;29.60;99.90;;;;;;5068000;28;20208;-68
2022/09/05 11:29:37;;;;;;;0.90;0.90;;;29.70;99.90;;;;;;5071026;28;20238;-68
2022/09/05 11:32:32;;;;;;;0.70;0.70;;;29.70;99.90;;;;;;5067582;28;20238;-68
2022/09/05 11:35:18;;;;;;;0.80;0.80;;;29.80;99.90;;;;;;5072424;28;20304;-68
2022/09/05 11:38:09;;;;;;;0.60;0.60;;;29.80;99.90;;;;;;5076392;28;20203;-69
2022/09/05 11:40:49;;;;;;;1.00;1.00;;;29.90;99.90;;;;;;5073975;28;20282;-68
2022/09/05 11:43:45;;;;;;;0.82;0.82;;;30.00;99.90;;;;;;5074958;28;20209;-68
2022/09/05 11:46:30;;;;;;;0.73;0.73;;;30.10;99.90;;;;;;5047614;28;20636;-67
2022/09/05 11:49:41;;;;;;;0.60;0.60;;;30.20;99.90;;;;;;5075099;28;20215;-68
2022/09/05 11:52:40;;;;;;;0.82;0.82;;;30.30;99.90;;;;;;5063344;28;20218;-68
2022/09/05 11:55:28;;;;;;;0.80;0.80;;;30.30;99.90;;;;;;5067943;28;20206;-68
2022/09/05 11:58:22;;;;;;;0.80;0.80;;;30.40;99.90;;;;;;5073899;28;20665;-67
2022/09/05 12:00:58;;;;;;;0.93;0.80;;;30.60;99.90;;;;;;5070742;28;20203;-67
2022/09/05 12:04:07;;;;;;;0.77;0.77;;;30.60;99.90;;;;;;5075474;28;20203;-69
2022/09/05 12:06:57;;;;;;;0.70;0.70;;;30.80;99.90;;;;;;5073863;28;20227;-69
2022/09/05 12:09:37;;;;;;;0.90;0.90;;;30.50;99.90;;;;;;5058305;28;20220;-68
2022/09/05 12:12:25;;;;;;;0.70;0.70;;;30.40;99.90;;;;;;5072026;28;20203;-68
2022/09/05 12:15:10;;;;;;;0.85;0.70;;;30.30;99.90;;;;;;5070653;28;20199;-67
2022/09/05 12:17:45;;;;;;;0.80;0.80;;;30.30;99.90;;;;;;5070099;28;20191;-68
2022/09/05 12:20:18;;;;;;;0.88;0.88;;;30.40;99.90;;;;;;5072018;28;20249;-68
2022/09/05 12:22:52;;;;;;;0.70;0.70;;;30.30;99.90;;;;;;5076135;28;20234;-68
2022/09/05 12:25:29;;;;;;;0.50;0.50;;;30.20;99.90;;;;;;5072854;28;20218;-68
2022/09/05 12:28:06;;;;;;;0.63;0.63;;;30.10;99.90;;;;;;5074386;28;20197;-69
2022/09/05 12:30:37;;;;;;;0.80;0.80;;;30.20;99.90;;;;;;5070132;28;20713;-68
2022/09/05 12:33:17;;;;;;;0.50;0.50;;;30.20;99.90;;;;;;5069774;28;20801;-70
2022/09/05 12:35:53;;;;;;;0.60;0.60;;;30.20;99.90;;;;;;5066512;28;20207;-68
2022/09/05 12:38:34;;;;;;;0.85;0.85;;;30.00;99.90;;;;;;5072527;28;20645;-68
2022/09/05 12:41:08;;;;;;;0.80;0.80;;;30.20;99.90;;;;;;5077262;28;20199;-68
2022/09/05 12:43:36;;;;;;;0.93;0.93;;;30.40;99.90;;;;;;5070648;28;20210;-68
2022/09/05 12:46:08;;;;;;;0.70;0.70;;;30.60;99.90;;;;;;5074196;28;20269;-68
2022/09/05 12:48:41;;;;;;;0.75;0.75;;;30.70;99.90;;;;;;5068150;28;20223;-68
2022/09/05 12:51:14;;;;;;;0.70;0.70;;;30.90;99.90;;;;;;5073943;28;20203;-68
2022/09/05 12:53:44;;;;;;;0.70;0.70;;;31.10;99.90;;;;;;5068337;28;20205;-69
2022/09/05 12:56:21;;;;;;;0.70;0.70;;;31.20;99.90;;;;;;5073245;28;20206;-68
2022/09/05 12:58:51;;;;;;;0.77;0.77;;;31.40;99.90;;;;;;5073503;28;20305;-69
2022/09/05 13:01:25;;;;;;;0.82;0.82;;;31.30;99.90;;;;;;5073420;28;20207;-68
2022/09/05 13:03:55;;;;;;;0.60;0.60;;;31.00;99.90;;;;;;5072725;28;20284;-69
2022/09/05 13:06:28;;;;;;;0.80;0.80;;;30.80;99.90;;;;;;5072351;28;20275;-68
2022/09/05 13:09:00;;;;;;;0.80;0.75;;;30.60;99.90;;;;;;5072581;28;20627;-66
2022/09/05 13:11:29;;;;;;;0.80;0.80;;;30.60;99.90;;;;;;5072752;28;20200;-67
2022/09/05 13:14:04;;;;;;;0.80;0.80;;;30.80;99.90;;;;;;5073212;28;20290;-69
2022/09/05 13:16:32;;;;;;;0.70;0.70;;;30.70;99.90;;;;;;5071535;28;20513;-68
2022/09/05 13:19:06;;;;;;;0.82;0.82;;;30.70;99.90;;;;;;5072657;28;20222;-68
2022/09/05 13:21:39;;;;;;;0.70;0.70;;;30.80;99.90;;;;;;5072907;28;20207;-68
2022/09/05 13:24:10;;;;;;;0.70;0.70;;;30.80;99.90;;;;;;5073208;28;20287;-68
2022/09/05 13:26:40;;;;;;;0.65;0.65;;;30.90;99.90;;;;;;5071976;28;20208;-69
2022/09/05 13:29:13;;;;;;;0.70;0.70;;;31.00;99.90;;;;;;5072289;28;20313;-67
2022/09/05 13:32:08;;;;;;;0.90;0.90;;;30.90;99.90;;;;;;5071798;28;20378;-67
2022/09/05 13:34:41;;;;;;;0.70;0.70;;;30.80;99.90;;;;;;5067511;28;20584;-66
2022/09/05 13:37:16;;;;;;;0.82;0.82;;;30.70;99.90;;;;;;5072040;28;20270;-67
2022/09/05 13:39:50;;;;;;;0.82;0.77;;;30.50;99.90;;;;;;5065507;28;20280;-67
2022/09/05 13:42:20;;;;;;;1.42;1.00;;;30.40;99.90;;;;;;5072354;28;20234;-68
2022/09/05 13:44:52;;;;;;;0.70;0.70;;;30.30;99.90;;;;;;5073688;28;20199;-67
2022/09/05 13:47:35;;;;;;;0.80;0.80;;;30.30;99.90;;;;;;5072543;28;20219;-67
2022/09/05 13:50:19;;;;;;;0.90;0.90;;;30.10;99.90;;;;;;5073415;28;20753;-67
2022/09/05 13:52:53;;;;;;;0.63;0.63;;;30.10;99.90;;;;;;5065968;28;20246;-68
2022/09/05 13:55:24;;;;;;;1.23;1.00;;;30.10;99.90;;;;;;5072259;28;20207;-67